sensor_id;sensor_type;location;lat;lon;timestamp;temperature;humidity
52963;DHT22;38827;53.024;6.596;2022-07-23T00:02:10;21.30;56.80
52963;DHT22;38827;53.024;6.596;2022-07-23T00:04:41;21.30;56.70
52963;DHT22;38827;53.024;6.596;2022-07-23T00:07:16;21.30;56.80
52963;DHT22;38827;53.024;6.596;2022-07-23T00:09:54;21.30;56.70
52963;DHT22;38827;53.024;6.596;2022-07-23T00:12:39;21.30;56.60
52963;DHT22;38827;53.024;6.596;2022-07-23T00:15:36;21.30;56.70
52963;DHT22;38827;53.024;6.596;2022-07-23T00:18:27;21.30;56.70
52963;DHT22;38827;53.024;6.596;2022-07-23T00:20:53;21.20;56.60
52963;DHT22;38827;53.024;6.596;2022-07-23T00:29:50;21.20;56.60
52963;DHT22;38827;53.024;6.596;2022-07-23T00:32:21;21.20;56.70
52963;DHT22;38827;53.024;6.596;2022-07-23T00:38:03;21.20;56.70
52963;DHT22;38827;53.024;6.596;2022-07-23T00:47:13;21.10;56.60
52963;DHT22;38827;53.024;6.596;2022-07-23T00:50:17;21.10;56.50
52963;DHT22;38827;53.024;6.596;2022-07-23T00:52:46;21.10;56.70
52963;DHT22;38827;53.024;6.596;2022-07-23T01:03:24;21.00;56.80
52963;DHT22;38827;53.024;6.596;2022-07-23T01:08:57;20.90;56.70
52963;DHT22;38827;53.024;6.596;2022-07-23T01:15:12;20.90;56.50
52963;DHT22;38827;53.024;6.596;2022-07-23T01:18:00;20.90;56.50
52963;DHT22;38827;53.024;6.596;2022-07-23T01:20:57;20.80;56.50
52963;DHT22;38827;53.024;6.596;2022-07-23T01:27:03;20.80;56.50
52963;DHT22;38827;53.024;6.596;2022-07-23T01:30:07;20.70;56.50
52963;DHT22;38827;53.024;6.596;2022-07-23T01:32:33;20.70;56.50
52963;DHT22;38827;53.024;6.596;2022-07-23T01:35:32;20.70;56.60
52963;DHT22;38827;53.024;6.596;2022-07-23T01:37:57;20.70;56.50
52963;DHT22;38827;53.024;6.596;2022-07-23T01:40:56;20.60;56.60
52963;DHT22;38827;53.024;6.596;2022-07-23T01:43:33;20.60;56.60
52963;DHT22;38827;53.024;6.596;2022-07-23T01:45:59;20.60;56.50
52963;DHT22;38827;53.024;6.596;2022-07-23T01:48:47;20.60;56.50
52963;DHT22;38827;53.024;6.596;2022-07-23T01:55:02;20.50;56.20
52963;DHT22;38827;53.024;6.596;2022-07-23T01:57:29;20.40;56.50
52963;DHT22;38827;53.024;6.596;2022-07-23T02:00:25;20.50;56.60
52963;DHT22;38827;53.024;6.596;2022-07-23T02:03:18;20.50;56.50
52963;DHT22;38827;53.024;6.596;2022-07-23T02:06:14;20.50;56.50
52963;DHT22;38827;53.024;6.596;2022-07-23T02:08:42;20.50;56.50
52963;DHT22;38827;53.024;6.596;2022-07-23T02:11:08;20.50;56.60
52963;DHT22;38827;53.024;6.596;2022-07-23T02:14:04;20.50;56.50
52963;DHT22;38827;53.024;6.596;2022-07-23T02:16:49;20.50;56.30
52963;DHT22;38827;53.024;6.596;2022-07-23T02:19:20;20.50;56.20
52963;DHT22;38827;53.024;6.596;2022-07-23T02:22:04;20.50;56.30
52963;DHT22;38827;53.024;6.596;2022-07-23T02:24:52;20.50;56.30
52963;DHT22;38827;53.024;6.596;2022-07-23T02:30:38;20.50;56.00
52963;DHT22;38827;53.024;6.596;2022-07-23T02:33:07;20.50;56.00
52963;DHT22;38827;53.024;6.596;2022-07-23T02:35:39;20.50;56.10
52963;DHT22;38827;53.024;6.596;2022-07-23T02:38:13;20.50;56.00
52963;DHT22;38827;53.024;6.596;2022-07-23T02:41:20;20.50;55.90
52963;DHT22;38827;53.024;6.596;2022-07-23T02:43:46;20.50;56.00
52963;DHT22;38827;53.024;6.596;2022-07-23T02:46:27;20.40;56.10
52963;DHT22;38827;53.024;6.596;2022-07-23T02:48:56;20.50;56.10
52963;DHT22;38827;53.024;6.596;2022-07-23T02:52:15;20.40;56.00
52963;DHT22;38827;53.024;6.596;2022-07-23T02:54:44;20.40;56.00
52963;DHT22;38827;53.024;6.596;2022-07-23T03:04:07;20.40;55.90
52963;DHT22;38827;53.024;6.596;2022-07-23T03:07:01;20.40;55.80
52963;DHT22;38827;53.024;6.596;2022-07-23T03:09:26;20.40;55.70
52963;DHT22;38827;53.024;6.596;2022-07-23T03:12:12;20.30;55.90
52963;DHT22;38827;53.024;6.596;2022-07-23T03:15:06;20.30;56.00
52963;DHT22;38827;53.024;6.596;2022-07-23T03:17:32;20.30;55.80
52963;DHT22;38827;53.024;6.596;2022-07-23T03:20:16;20.30;55.90
52963;DHT22;38827;53.024;6.596;2022-07-23T03:23:03;20.30;55.90
52963;DHT22;38827;53.024;6.596;2022-07-23T03:25:51;20.20;56.00
52963;DHT22;38827;53.024;6.596;2022-07-23T03:28:26;20.30;56.10
52963;DHT22;38827;53.024;6.596;2022-07-23T03:31:20;20.30;56.00
52963;DHT22;38827;53.024;6.596;2022-07-23T03:36:56;20.30;55.80
52963;DHT22;38827;53.024;6.596;2022-07-23T03:39:27;20.30;55.80
52963;DHT22;38827;53.024;6.596;2022-07-23T03:42:08;20.20;56.00
52963;DHT22;38827;53.024;6.596;2022-07-23T03:44:49;20.20;55.90
52963;DHT22;38827;53.024;6.596;2022-07-23T03:47:21;20.20;56.10
52963;DHT22;38827;53.024;6.596;2022-07-23T03:49:56;20.20;56.00
52963;DHT22;38827;53.024;6.596;2022-07-23T03:55:40;20.20;55.80
52963;DHT22;38827;53.024;6.596;2022-07-23T03:58:08;20.20;55.80
52963;DHT22;38827;53.024;6.596;2022-07-23T04:00:53;20.20;55.80
52963;DHT22;38827;53.024;6.596;2022-07-23T04:03:19;20.20;55.70
52963;DHT22;38827;53.024;6.596;2022-07-23T04:05:53;20.10;55.60
52963;DHT22;38827;53.024;6.596;2022-07-23T04:08:22;20.10;55.50
52963;DHT22;38827;53.024;6.596;2022-07-23T04:11:11;20.00;56.00
52963;DHT22;38827;53.024;6.596;2022-07-23T04:13:58;20.00;55.80
52963;DHT22;38827;53.024;6.596;2022-07-23T04:16:48;19.90;56.20
52963;DHT22;38827;53.024;6.596;2022-07-23T04:19:14;19.90;56.10
52963;DHT22;38827;53.024;6.596;2022-07-23T04:21:56;19.80;56.40
52963;DHT22;38827;53.024;6.596;2022-07-23T04:24:41;19.90;56.20
52963;DHT22;38827;53.024;6.596;2022-07-23T04:27:19;19.90;56.20
52963;DHT22;38827;53.024;6.596;2022-07-23T04:29:54;19.90;56.20
52963;DHT22;38827;53.024;6.596;2022-07-23T04:32:42;20.00;56.20
52963;DHT22;38827;53.024;6.596;2022-07-23T04:35:08;20.00;56.10
52963;DHT22;38827;53.024;6.596;2022-07-23T04:37:36;20.10;56.10
52963;DHT22;38827;53.024;6.596;2022-07-23T04:40:22;20.10;56.00
52963;DHT22;38827;53.024;6.596;2022-07-23T04:42:48;20.10;55.80
52963;DHT22;38827;53.024;6.596;2022-07-23T04:45:19;20.10;55.90
52963;DHT22;38827;53.024;6.596;2022-07-23T04:48:00;20.20;55.80
52963;DHT22;38827;53.024;6.596;2022-07-23T04:50:29;20.40;55.50
52963;DHT22;38827;53.024;6.596;2022-07-23T04:53:01;20.40;55.10
52963;DHT22;38827;53.024;6.596;2022-07-23T04:55:33;20.40;55.30
52963;DHT22;38827;53.024;6.596;2022-07-23T04:57:58;20.50;55.40
52963;DHT22;38827;53.024;6.596;2022-07-23T05:00:24;20.50;55.40
52963;DHT22;38827;53.024;6.596;2022-07-23T05:02:57;20.50;55.50
52963;DHT22;38827;53.024;6.596;2022-07-23T05:05:23;20.60;54.70
52963;DHT22;38827;53.024;6.596;2022-07-23T05:07:48;20.60;55.10
52963;DHT22;38827;53.024;6.596;2022-07-23T05:10:23;20.70;55.30
52963;DHT22;38827;53.024;6.596;2022-07-23T05:12:49;20.80;54.80
52963;DHT22;38827;53.024;6.596;2022-07-23T05:15:29;20.90;54.70
52963;DHT22;38827;53.024;6.596;2022-07-23T05:17:58;20.90;54.40
52963;DHT22;38827;53.024;6.596;2022-07-23T05:20:30;21.00;54.50
52963;DHT22;38827;53.024;6.596;2022-07-23T05:23:11;21.10;54.20
52963;DHT22;38827;53.024;6.596;2022-07-23T05:25:36;21.10;53.70
52963;DHT22;38827;53.024;6.596;2022-07-23T05:28:17;21.00;54.30
52963;DHT22;38827;53.024;6.596;2022-07-23T05:31:04;21.10;53.90
52963;DHT22;38827;53.024;6.596;2022-07-23T05:33:30;21.10;54.00
52963;DHT22;38827;53.024;6.596;2022-07-23T05:36:03;21.10;54.20
52963;DHT22;38827;53.024;6.596;2022-07-23T05:38:48;21.10;54.20
52963;DHT22;38827;53.024;6.596;2022-07-23T05:41:16;21.10;53.80
52963;DHT22;38827;53.024;6.596;2022-07-23T05:46:43;21.10;54.40
52963;DHT22;38827;53.024;6.596;2022-07-23T05:49:09;21.10;54.00
52963;DHT22;38827;53.024;6.596;2022-07-23T05:51:47;21.10;54.30
52963;DHT22;38827;53.024;6.596;2022-07-23T05:54:13;21.10;54.40
52963;DHT22;38827;53.024;6.596;2022-07-23T05:56:38;21.00;54.60
52963;DHT22;38827;53.024;6.596;2022-07-23T05:59:19;21.10;54.40
52963;DHT22;38827;53.024;6.596;2022-07-23T06:04:43;21.20;54.00
52963;DHT22;38827;53.024;6.596;2022-07-23T06:07:25;21.20;53.70
52963;DHT22;38827;53.024;6.596;2022-07-23T06:13:30;21.20;54.30
52963;DHT22;38827;53.024;6.596;2022-07-23T06:16:02;21.20;54.40
52963;DHT22;38827;53.024;6.596;2022-07-23T06:18:28;21.30;54.40
52963;DHT22;38827;53.024;6.596;2022-07-23T06:24:06;21.20;54.00
52963;DHT22;38827;53.024;6.596;2022-07-23T06:26:38;21.10;54.70
52963;DHT22;38827;53.024;6.596;2022-07-23T06:29:03;21.30;54.40
52963;DHT22;38827;53.024;6.596;2022-07-23T06:32:11;21.30;54.10
52963;DHT22;38827;53.024;6.596;2022-07-23T06:35:08;21.40;54.30
52963;DHT22;38827;53.024;6.596;2022-07-23T06:40:28;21.50;54.40
52963;DHT22;38827;53.024;6.596;2022-07-23T06:43:34;21.60;53.50
52963;DHT22;38827;53.024;6.596;2022-07-23T06:46:21;21.40;53.20
52963;DHT22;38827;53.024;6.596;2022-07-23T06:49:24;21.30;53.80
52963;DHT22;38827;53.024;6.596;2022-07-23T06:51:53;21.20;54.10
52963;DHT22;38827;53.024;6.596;2022-07-23T06:54:18;21.10;55.10
52963;DHT22;38827;53.024;6.596;2022-07-23T06:56:47;21.20;54.70
52963;DHT22;38827;53.024;6.596;2022-07-23T06:59:12;21.30;54.90
52963;DHT22;38827;53.024;6.596;2022-07-23T07:01:38;21.40;54.50
52963;DHT22;38827;53.024;6.596;2022-07-23T07:04:04;21.40;54.00
52963;DHT22;38827;53.024;6.596;2022-07-23T07:06:45;21.30;54.60
52963;DHT22;38827;53.024;6.596;2022-07-23T07:09:11;21.40;54.10
52963;DHT22;38827;53.024;6.596;2022-07-23T07:11:36;21.40;54.80
52963;DHT22;38827;53.024;6.596;2022-07-23T07:14:30;21.50;55.10
52963;DHT22;38827;53.024;6.596;2022-07-23T07:17:13;21.70;54.40
52963;DHT22;38827;53.024;6.596;2022-07-23T07:19:45;21.90;53.40
52963;DHT22;38827;53.024;6.596;2022-07-23T07:22:29;22.10;53.50
52963;DHT22;38827;53.024;6.596;2022-07-23T07:25:29;22.10;56.00
52963;DHT22;38827;53.024;6.596;2022-07-23T07:31:33;22.20;54.10
52963;DHT22;38827;53.024;6.596;2022-07-23T07:34:32;21.90;53.00
52963;DHT22;38827;53.024;6.596;2022-07-23T07:37:17;21.70;53.40
52963;DHT22;38827;53.024;6.596;2022-07-23T07:39:42;21.60;53.10
52963;DHT22;38827;53.024;6.596;2022-07-23T07:42:59;21.30;53.60
52963;DHT22;38827;53.024;6.596;2022-07-23T07:45:24;21.00;54.70
52963;DHT22;38827;53.024;6.596;2022-07-23T07:48:22;21.10;62.00
52963;DHT22;38827;53.024;6.596;2022-07-23T07:50:54;21.40;58.60
52963;DHT22;38827;53.024;6.596;2022-07-23T07:53:29;21.60;57.90
52963;DHT22;38827;53.024;6.596;2022-07-23T07:56:13;21.70;55.40
52963;DHT22;38827;53.024;6.596;2022-07-23T07:58:38;21.90;54.90
52963;DHT22;38827;53.024;6.596;2022-07-23T08:01:10;22.10;55.90
52963;DHT22;38827;53.024;6.596;2022-07-23T08:03:58;22.40;53.80
52963;DHT22;38827;53.024;6.596;2022-07-23T08:06:49;22.60;54.00
52963;DHT22;38827;53.024;6.596;2022-07-23T08:09:29;22.80;53.30
52963;DHT22;38827;53.024;6.596;2022-07-23T08:12:17;22.80;52.80
52963;DHT22;38827;53.024;6.596;2022-07-23T08:15:03;22.70;51.50
52963;DHT22;38827;53.024;6.596;2022-07-23T08:17:29;22.60;50.90
52963;DHT22;38827;53.024;6.596;2022-07-23T08:20:46;22.60;51.40
52963;DHT22;38827;53.024;6.596;2022-07-23T08:23:17;22.60;51.40
52963;DHT22;38827;53.024;6.596;2022-07-23T08:29:19;22.70;47.30
52963;DHT22;38827;53.024;6.596;2022-07-23T08:38:35;23.20;47.60
52963;DHT22;38827;53.024;6.596;2022-07-23T08:41:10;23.20;47.60
52963;DHT22;38827;53.024;6.596;2022-07-23T08:43:40;23.40;47.90
52963;DHT22;38827;53.024;6.596;2022-07-23T08:46:31;23.40;47.40
52963;DHT22;38827;53.024;6.596;2022-07-23T08:49:00;23.40;46.50
52963;DHT22;38827;53.024;6.596;2022-07-23T08:52:08;23.20;48.10
52963;DHT22;38827;53.024;6.596;2022-07-23T08:54:34;23.20;47.70
52963;DHT22;38827;53.024;6.596;2022-07-23T08:57:03;23.40;47.00
52963;DHT22;38827;53.024;6.596;2022-07-23T09:00:05;23.70;45.80
52963;DHT22;38827;53.024;6.596;2022-07-23T09:03:33;23.90;45.20
52963;DHT22;38827;53.024;6.596;2022-07-23T09:06:56;24.00;43.30
52963;DHT22;38827;53.024;6.596;2022-07-23T09:09:25;24.00;46.00
52963;DHT22;38827;53.024;6.596;2022-07-23T09:12:29;23.90;45.90
52963;DHT22;38827;53.024;6.596;2022-07-23T09:36:42;24.30;43.00
52963;DHT22;38827;53.024;6.596;2022-07-23T09:39:16;24.10;44.70
52963;DHT22;38827;53.024;6.596;2022-07-23T09:44:18;24.10;44.60
52963;DHT22;38827;53.024;6.596;2022-07-23T09:47:04;24.10;45.10
52963;DHT22;38827;53.024;6.596;2022-07-23T09:50:10;24.10;42.70
52963;DHT22;38827;53.024;6.596;2022-07-23T10:04:46;24.00;44.50
52963;DHT22;38827;53.024;6.596;2022-07-23T10:07:45;24.00;45.00
52963;DHT22;38827;53.024;6.596;2022-07-23T10:13:51;24.10;45.10
52963;DHT22;38827;53.024;6.596;2022-07-23T10:16:55;24.20;44.80
52963;DHT22;38827;53.024;6.596;2022-07-23T10:27:30;25.00;43.00
52963;DHT22;38827;53.024;6.596;2022-07-23T10:37:21;24.90;43.10
52963;DHT22;38827;53.024;6.596;2022-07-23T10:40:23;24.60;44.40
52963;DHT22;38827;53.024;6.596;2022-07-23T10:43:01;24.50;44.40
52963;DHT22;38827;53.024;6.596;2022-07-23T10:45:32;24.40;44.40
52963;DHT22;38827;53.024;6.596;2022-07-23T10:48:30;24.20;44.60
52963;DHT22;38827;53.024;6.596;2022-07-23T10:51:15;24.10;44.80
52963;DHT22;38827;53.024;6.596;2022-07-23T10:54:00;24.10;45.30
52963;DHT22;38827;53.024;6.596;2022-07-23T11:00:12;24.50;44.60
52963;DHT22;38827;53.024;6.596;2022-07-23T11:18:58;24.60;44.70
52963;DHT22;38827;53.024;6.596;2022-07-23T12:02:07;25.90;43.00
52963;DHT22;38827;53.024;6.596;2022-07-23T12:04:55;26.20;42.50
52963;DHT22;38827;53.024;6.596;2022-07-23T12:08:06;26.20;42.30
52963;DHT22;38827;53.024;6.596;2022-07-23T12:13:41;26.60;42.20
52963;DHT22;38827;53.024;6.596;2022-07-23T12:16:10;26.80;41.50
52963;DHT22;38827;53.024;6.596;2022-07-23T12:18:40;26.50;42.00
52963;DHT22;38827;53.024;6.596;2022-07-23T12:30:58;25.40;43.40
52963;DHT22;38827;53.024;6.596;2022-07-23T12:49:47;27.20;41.00
52963;DHT22;38827;53.024;6.596;2022-07-23T12:52:28;27.30;40.20
52963;DHT22;38827;53.024;6.596;2022-07-23T12:54:54;27.10;40.50
52963;DHT22;38827;53.024;6.596;2022-07-23T13:08:02;27.20;40.40
52963;DHT22;38827;53.024;6.596;2022-07-23T13:10:49;26.70;41.10
52963;DHT22;38827;53.024;6.596;2022-07-23T13:21:07;26.30;43.10
52963;DHT22;38827;53.024;6.596;2022-07-23T13:23:45;26.50;42.80
52963;DHT22;38827;53.024;6.596;2022-07-23T13:26:35;26.70;42.30
52963;DHT22;38827;53.024;6.596;2022-07-23T13:29:15;26.90;41.90
52963;DHT22;38827;53.024;6.596;2022-07-23T13:31:41;27.00;41.20
52963;DHT22;38827;53.024;6.596;2022-07-23T13:34:10;27.00;41.80
52963;DHT22;38827;53.024;6.596;2022-07-23T13:36:40;26.90;41.80
52963;DHT22;38827;53.024;6.596;2022-07-23T13:39:05;26.80;41.50
52963;DHT22;38827;53.024;6.596;2022-07-23T13:44:35;26.30;42.20
52963;DHT22;38827;53.024;6.596;2022-07-23T13:50:19;25.90;42.50
52963;DHT22;38827;53.024;6.596;2022-07-23T13:53:07;25.70;42.80
52963;DHT22;38827;53.024;6.596;2022-07-23T14:02:40;25.50;43.60
52963;DHT22;38827;53.024;6.596;2022-07-23T14:05:15;25.40;44.20
52963;DHT22;38827;53.024;6.596;2022-07-23T14:08:05;25.30;43.80
52963;DHT22;38827;53.024;6.596;2022-07-23T14:20:25;25.10;44.60
52963;DHT22;38827;53.024;6.596;2022-07-23T14:22:53;25.00;44.70
52963;DHT22;38827;53.024;6.596;2022-07-23T14:25:21;25.10;45.00
52963;DHT22;38827;53.024;6.596;2022-07-23T14:28:49;25.30;44.40
52963;DHT22;38827;53.024;6.596;2022-07-23T14:31:24;25.60;43.80
52963;DHT22;38827;53.024;6.596;2022-07-23T14:37:28;25.70;43.60
52963;DHT22;38827;53.024;6.596;2022-07-23T14:39:57;25.50;44.10
52963;DHT22;38827;53.024;6.596;2022-07-23T14:42:41;25.50;44.60
52963;DHT22;38827;53.024;6.596;2022-07-23T14:45:35;25.70;44.40
52963;DHT22;38827;53.024;6.596;2022-07-23T14:48:01;25.90;44.00
52963;DHT22;38827;53.024;6.596;2022-07-23T15:02:56;26.00;43.60
52963;DHT22;38827;53.024;6.596;2022-07-23T15:05:22;25.90;43.60
52963;DHT22;38827;53.024;6.596;2022-07-23T15:08:00;25.80;43.60
52963;DHT22;38827;53.024;6.596;2022-07-23T15:10:46;25.60;44.20
52963;DHT22;38827;53.024;6.596;2022-07-23T15:13:21;25.60;43.90
52963;DHT22;38827;53.024;6.596;2022-07-23T15:15:59;25.60;44.50
52963;DHT22;38827;53.024;6.596;2022-07-23T15:22:23;25.40;44.80
52963;DHT22;38827;53.024;6.596;2022-07-23T15:32:11;25.30;44.80
52963;DHT22;38827;53.024;6.596;2022-07-23T15:42:45;25.20;44.70
52963;DHT22;38827;53.024;6.596;2022-07-23T15:48:19;25.30;45.00
52963;DHT22;38827;53.024;6.596;2022-07-23T15:54:28;25.00;45.40
52963;DHT22;38827;53.024;6.596;2022-07-23T15:57:28;25.00;45.70
52963;DHT22;38827;53.024;6.596;2022-07-23T16:00:21;24.90;45.90
52963;DHT22;38827;53.024;6.596;2022-07-23T16:03:27;24.90;45.50
52963;DHT22;38827;53.024;6.596;2022-07-23T16:32:44;24.20;47.00
52963;DHT22;38827;53.024;6.596;2022-07-23T16:35:25;24.20;46.40
52963;DHT22;38827;53.024;6.596;2022-07-23T16:38:07;24.30;46.40
52963;DHT22;38827;53.024;6.596;2022-07-23T16:40:54;24.30;46.90
52963;DHT22;38827;53.024;6.596;2022-07-23T16:43:31;24.30;46.90
52963;DHT22;38827;53.024;6.596;2022-07-23T16:46:16;24.20;46.80
52963;DHT22;38827;53.024;6.596;2022-07-23T16:51:57;24.10;47.10
52963;DHT22;38827;53.024;6.596;2022-07-23T16:58:00;23.80;47.70
52963;DHT22;38827;53.024;6.596;2022-07-23T17:08:08;23.70;48.20
52963;DHT22;38827;53.024;6.596;2022-07-23T17:11:20;23.50;48.00
52963;DHT22;38827;53.024;6.596;2022-07-23T17:14:08;23.50;48.00
52963;DHT22;38827;53.024;6.596;2022-07-23T17:16:38;23.50;48.30
52963;DHT22;38827;53.024;6.596;2022-07-23T17:19:33;23.50;48.20
52963;DHT22;38827;53.024;6.596;2022-07-23T17:22:09;23.40;48.20
52963;DHT22;38827;53.024;6.596;2022-07-23T17:38:03;23.20;49.20
52963;DHT22;38827;53.024;6.596;2022-07-23T17:40:30;23.20;49.30
52963;DHT22;38827;53.024;6.596;2022-07-23T17:43:02;23.10;49.40
52963;DHT22;38827;53.024;6.596;2022-07-23T17:45:30;23.20;49.60
52963;DHT22;38827;53.024;6.596;2022-07-23T17:48:39;23.10;50.00
52963;DHT22;38827;53.024;6.596;2022-07-23T17:51:49;23.10;49.80
52963;DHT22;38827;53.024;6.596;2022-07-23T17:54:31;23.00;49.60
52963;DHT22;38827;53.024;6.596;2022-07-23T17:56:58;22.90;49.70
52963;DHT22;38827;53.024;6.596;2022-07-23T17:59:24;22.80;50.00
52963;DHT22;38827;53.024;6.596;2022-07-23T18:01:50;22.80;50.30
52963;DHT22;38827;53.024;6.596;2022-07-23T18:04:41;22.70;50.60
52963;DHT22;38827;53.024;6.596;2022-07-23T18:07:22;22.60;50.50
52963;DHT22;38827;53.024;6.596;2022-07-23T18:09:57;22.60;51.10
52963;DHT22;38827;53.024;6.596;2022-07-23T18:12:36;22.50;51.00
52963;DHT22;38827;53.024;6.596;2022-07-23T18:15:05;22.50;51.20
52963;DHT22;38827;53.024;6.596;2022-07-23T18:20:58;22.30;51.20
52963;DHT22;38827;53.024;6.596;2022-07-23T18:23:38;22.20;51.50
52963;DHT22;38827;53.024;6.596;2022-07-23T18:26:04;22.10;51.50
52963;DHT22;38827;53.024;6.596;2022-07-23T18:28:48;22.00;51.70
52963;DHT22;38827;53.024;6.596;2022-07-23T18:31:32;22.00;51.80
52963;DHT22;38827;53.024;6.596;2022-07-23T18:34:13;22.00;51.90
52963;DHT22;38827;53.024;6.596;2022-07-23T18:40:16;21.90;52.60
52963;DHT22;38827;53.024;6.596;2022-07-23T18:43:11;21.80;53.20
52963;DHT22;38827;53.024;6.596;2022-07-23T18:45:55;21.80;53.90
52963;DHT22;38827;53.024;6.596;2022-07-23T18:48:29;21.70;54.20
52963;DHT22;38827;53.024;6.596;2022-07-23T18:51:00;21.60;54.60
52963;DHT22;38827;53.024;6.596;2022-07-23T18:53:45;21.60;54.90
52963;DHT22;38827;53.024;6.596;2022-07-23T18:56:23;21.50;55.40
52963;DHT22;38827;53.024;6.596;2022-07-23T18:59:13;21.40;55.60
52963;DHT22;38827;53.024;6.596;2022-07-23T19:01:39;21.30;55.90
52963;DHT22;38827;53.024;6.596;2022-07-23T19:04:13;21.20;56.40
52963;DHT22;38827;53.024;6.596;2022-07-23T19:06:55;21.10;56.50
52963;DHT22;38827;53.024;6.596;2022-07-23T19:09:24;21.00;56.70
52963;DHT22;38827;53.024;6.596;2022-07-23T19:11:50;20.90;57.20
52963;DHT22;38827;53.024;6.596;2022-07-23T19:14:35;20.90;57.40
52963;DHT22;38827;53.024;6.596;2022-07-23T19:17:41;20.80;57.30
52963;DHT22;38827;53.024;6.596;2022-07-23T19:20:40;20.70;57.60
52963;DHT22;38827;53.024;6.596;2022-07-23T19:23:18;20.60;57.80
52963;DHT22;38827;53.024;6.596;2022-07-23T19:26:06;20.50;58.30
52963;DHT22;38827;53.024;6.596;2022-07-23T19:28:34;20.40;58.80
52963;DHT22;38827;53.024;6.596;2022-07-23T19:34:15;20.10;59.40
52963;DHT22;38827;53.024;6.596;2022-07-23T19:36:40;20.00;60.00
52963;DHT22;38827;53.024;6.596;2022-07-23T19:39:20;19.80;60.50
52963;DHT22;38827;53.024;6.596;2022-07-23T19:49:20;19.50;61.30
52963;DHT22;38827;53.024;6.596;2022-07-23T19:51:58;19.40;61.90
52963;DHT22;38827;53.024;6.596;2022-07-23T19:58:08;19.30;62.30
52963;DHT22;38827;53.024;6.596;2022-07-23T20:00:37;19.10;62.60
52963;DHT22;38827;53.024;6.596;2022-07-23T20:03:28;19.10;63.20
52963;DHT22;38827;53.024;6.596;2022-07-23T20:06:09;19.00;63.30
52963;DHT22;38827;53.024;6.596;2022-07-23T20:08:50;18.90;63.40
52963;DHT22;38827;53.024;6.596;2022-07-23T20:40:12;18.10;65.40
52963;DHT22;38827;53.024;6.596;2022-07-23T20:51:21;17.90;66.40
52963;DHT22;38827;53.024;6.596;2022-07-23T20:56:56;17.80;67.00
52963;DHT22;38827;53.024;6.596;2022-07-23T20:59:34;17.80;66.90
52963;DHT22;38827;53.024;6.596;2022-07-23T21:05:30;17.70;67.20
52963;DHT22;38827;53.024;6.596;2022-07-23T21:08:35;17.60;67.30
52963;DHT22;38827;53.024;6.596;2022-07-23T21:11:02;17.50;67.50
52963;DHT22;38827;53.024;6.596;2022-07-23T21:14:00;17.50;67.80
52963;DHT22;38827;53.024;6.596;2022-07-23T21:16:38;17.50;67.90
52963;DHT22;38827;53.024;6.596;2022-07-23T21:19:23;17.40;68.20
52963;DHT22;38827;53.024;6.596;2022-07-23T21:21:54;17.40;68.30
52963;DHT22;38827;53.024;6.596;2022-07-23T21:28:17;17.30;68.60
52963;DHT22;38827;53.024;6.596;2022-07-23T22:19:25;16.40;70.30
52963;DHT22;38827;53.024;6.596;2022-07-23T22:21:57;16.40;70.50
52963;DHT22;38827;53.024;6.596;2022-07-23T22:26:54;16.30;71.00
52963;DHT22;38827;53.024;6.596;2022-07-23T22:29:22;16.30;71.00
52963;DHT22;38827;53.024;6.596;2022-07-23T22:31:50;16.30;71.20
52963;DHT22;38827;53.024;6.596;2022-07-23T22:34:15;16.30;71.40
52963;DHT22;38827;53.024;6.596;2022-07-23T22:36:45;16.30;71.30
52963;DHT22;38827;53.024;6.596;2022-07-23T22:39:17;16.20;71.50
52963;DHT22;38827;53.024;6.596;2022-07-23T22:41:51;16.20;71.60
52963;DHT22;38827;53.024;6.596;2022-07-23T22:44:39;16.20;71.60
52963;DHT22;38827;53.024;6.596;2022-07-23T22:47:26;16.20;71.60
52963;DHT22;38827;53.024;6.596;2022-07-23T22:50:13;16.20;71.50
52963;DHT22;38827;53.024;6.596;2022-07-23T22:52:57;16.10;71.60
52963;DHT22;38827;53.024;6.596;2022-07-23T22:55:26;16.10;71.80
52963;DHT22;38827;53.024;6.596;2022-07-23T22:57:52;16.10;72.00
52963;DHT22;38827;53.024;6.596;2022-07-23T23:00:26;16.00;72.10
52963;DHT22;38827;53.024;6.596;2022-07-23T23:02:52;16.10;72.10
52963;DHT22;38827;53.024;6.596;2022-07-23T23:08:36;16.00;72.30
52963;DHT22;38827;53.024;6.596;2022-07-23T23:11:23;16.00;72.30
52963;DHT22;38827;53.024;6.596;2022-07-23T23:16:54;15.90;72.60
52963;DHT22;38827;53.024;6.596;2022-07-23T23:19:48;15.90;72.70
52963;DHT22;38827;53.024;6.596;2022-07-23T23:25:59;15.90;72.80
52963;DHT22;38827;53.024;6.596;2022-07-23T23:28:31;15.90;73.00
52963;DHT22;38827;53.024;6.596;2022-07-23T23:31:11;15.90;73.20
52963;DHT22;38827;53.024;6.596;2022-07-23T23:33:40;15.90;73.30
52963;DHT22;38827;53.024;6.596;2022-07-23T23:36:52;15.90;73.30
52963;DHT22;38827;53.024;6.596;2022-07-23T23:39:35;15.90;73.20
52963;DHT22;38827;53.024;6.596;2022-07-23T23:42:19;15.80;73.30
52963;DHT22;38827;53.024;6.596;2022-07-23T23:45:00;15.80;73.50
52963;DHT22;38827;53.024;6.596;2022-07-23T23:47:44;15.80;73.40
52963;DHT22;38827;53.024;6.596;2022-07-23T23:50:22;15.80;73.50
52963;DHT22;38827;53.024;6.596;2022-07-23T23:52:51;15.80;73.70
52963;DHT22;38827;53.024;6.596;2022-07-23T23:55:22;15.80;73.70
